createdAt,value
2018-07-14T00:00:35.781Z,6.70
2018-07-14T00:03:04.557Z,7.10
2018-07-14T00:05:33.393Z,6.00
2018-07-14T00:08:02.153Z,6.10
2018-07-14T00:10:31.037Z,7.20
2018-07-14T00:12:59.876Z,7.50
2018-07-14T00:15:28.677Z,7.60
2018-07-14T00:20:25.941Z,8.40
2018-07-14T00:22:54.698Z,8.80
2018-07-14T00:28:20.529Z,8.40
2018-07-14T00:30:49.272Z,7.40
2018-07-14T00:33:18.033Z,6.90
2018-07-14T00:35:46.789Z,6.80
2018-07-14T00:38:15.552Z,7.10
2018-07-14T00:40:44.385Z,8.10
2018-07-14T00:43:13.161Z,7.10
2018-07-14T00:45:41.914Z,6.40
2018-07-14T00:48:10.669Z,7.20
2018-07-14T00:50:39.429Z,6.20
2018-07-14T00:53:08.422Z,5.20
2018-07-14T00:55:37.153Z,5.00
2018-07-14T01:00:34.617Z,8.10
2018-07-14T01:03:03.454Z,6.70
2018-07-14T01:05:32.338Z,5.70
2018-07-14T01:08:01.073Z,6.30
2018-07-14T01:10:29.925Z,6.90
2018-07-14T01:12:58.721Z,6.40
2018-07-14T01:15:27.542Z,6.50
2018-07-14T01:17:56.312Z,6.60
2018-07-14T01:20:25.082Z,6.70
2018-07-14T01:22:53.838Z,8.00
2018-07-14T01:25:22.577Z,8.10
2018-07-14T01:27:51.345Z,8.10
2018-07-14T01:30:20.109Z,7.60
2018-07-14T01:32:48.930Z,8.10
2018-07-14T01:35:17.677Z,8.10
2018-07-14T01:40:14.926Z,8.10
2018-07-14T01:42:43.681Z,8.10
2018-07-14T01:45:12.449Z,7.70
2018-07-14T01:47:41.252Z,8.00
2018-07-14T01:50:09.987Z,6.50
2018-07-14T01:55:07.397Z,8.10
2018-07-14T01:57:36.178Z,7.30
2018-07-14T02:00:05.015Z,8.20
2018-07-14T02:02:33.773Z,8.10
2018-07-14T02:05:02.538Z,8.10
2018-07-14T02:07:31.289Z,7.70
2018-07-14T02:12:28.557Z,6.80
2018-07-14T02:14:57.298Z,7.30
2018-07-14T02:17:26.101Z,7.30
2018-07-14T02:19:54.845Z,6.30
2018-07-14T02:24:52.162Z,6.30
2018-07-14T02:27:20.942Z,8.30
2018-07-14T02:29:49.793Z,8.20
2018-07-14T02:32:18.562Z,8.90
2018-07-14T02:37:15.813Z,8.10
2018-07-14T02:39:44.585Z,9.30
2018-07-14T02:42:13.346Z,9.10
2018-07-14T02:44:42.180Z,8.30
2018-07-14T02:47:10.943Z,8.40
2018-07-14T02:49:39.753Z,8.40
2018-07-14T02:52:08.505Z,8.80
2018-07-14T02:54:37.261Z,9.60
2018-07-14T02:57:06.017Z,9.30
2018-07-14T02:59:34.839Z,8.40
2018-07-14T03:02:03.561Z,9.00
2018-07-14T03:04:32.346Z,9.70
2018-07-14T03:07:01.205Z,9.40
2018-07-14T03:09:29.977Z,10.10
2018-07-14T03:11:58.765Z,9.20
2018-07-14T03:14:27.550Z,9.10
2018-07-14T03:16:56.298Z,9.70
2018-07-14T03:19:25.090Z,10.40
2018-07-14T03:21:54.026Z,10.20
2018-07-14T03:26:51.289Z,8.50
2018-07-14T03:29:20.202Z,8.40
2018-07-14T03:31:48.953Z,9.70
2018-07-14T03:34:17.709Z,9.40
2018-07-14T03:36:46.555Z,9.10
2018-07-14T03:41:43.781Z,9.80
2018-07-14T03:44:12.545Z,8.50
2018-07-14T03:46:41.285Z,8.50
2018-07-14T03:49:10.049Z,8.70
2018-07-14T03:51:38.809Z,9.00
2018-07-14T03:54:07.613Z,8.50
2018-07-14T03:56:36.365Z,8.50
2018-07-14T03:59:05.512Z,8.40
2018-07-14T04:01:34.351Z,9.10
2018-07-14T04:04:03.121Z,8.50
2018-07-14T04:06:32.134Z,8.50
2018-07-14T04:09:07.501Z,8.50
2018-07-14T04:11:36.237Z,8.50
2018-07-14T04:14:05.003Z,8.50
2018-07-14T04:16:33.761Z,8.60
2018-07-14T04:19:02.557Z,8.60
2018-07-14T04:21:31.305Z,7.80
2018-07-14T04:26:28.613Z,8.60
2018-07-14T04:28:57.374Z,8.50
2018-07-14T04:31:26.126Z,7.80
2018-07-14T04:33:54.886Z,7.60
2018-07-14T04:36:23.625Z,7.30
2018-07-14T04:38:52.446Z,8.70
2018-07-14T04:43:49.641Z,6.90
2018-07-14T04:46:18.454Z,6.90
2018-07-14T04:48:47.254Z,5.60
2018-07-14T04:51:16.005Z,5.60
2018-07-14T04:53:44.782Z,5.40
2018-07-14T04:56:13.529Z,6.40
2018-07-14T04:58:42.293Z,5.70
2018-07-14T05:01:11.061Z,6.90
2018-07-14T05:03:39.802Z,6.40
2018-07-14T05:06:08.561Z,4.90
2018-07-14T05:08:37.309Z,5.60
2018-07-14T05:11:06.103Z,5.90
2018-07-14T05:13:34.878Z,4.80
2018-07-14T05:16:03.645Z,5.40
2018-07-14T05:18:32.509Z,5.10
2018-07-14T05:23:29.834Z,7.10
2018-07-14T05:25:58.614Z,6.30
2018-07-14T05:28:27.398Z,5.50
2018-07-14T05:35:53.118Z,6.60
2018-07-14T05:38:21.937Z,6.90
2018-07-14T05:40:50.698Z,7.10
2018-07-14T05:43:19.014Z,6.80
2018-07-14T05:45:47.786Z,6.60
2018-07-14T05:48:16.634Z,5.90
2018-07-14T05:50:45.381Z,6.10
2018-07-14T05:53:14.122Z,4.50
2018-07-14T05:58:11.397Z,3.70
2018-07-14T06:00:40.221Z,1.70
2018-07-14T06:03:09.170Z,1.00
2018-07-14T06:05:38.130Z,1.00
2018-07-14T06:08:06.881Z,1.00
2018-07-14T06:10:35.690Z,1.00
2018-07-14T06:13:04.437Z,1.00
2018-07-14T06:15:33.347Z,1.00
2018-07-14T06:18:02.277Z,1.00
2018-07-14T06:20:31.075Z,1.00
2018-07-14T06:22:59.838Z,1.00
2018-07-14T06:25:28.676Z,1.00
2018-07-14T06:27:57.485Z,1.00
2018-07-14T06:30:26.229Z,1.00
2018-07-14T06:32:55.007Z,1.00
2018-07-14T06:35:23.772Z,1.00
2018-07-14T06:37:52.510Z,1.00
2018-07-14T06:40:21.374Z,1.00
2018-07-14T06:42:50.191Z,1.00
2018-07-14T06:45:19.054Z,1.00
2018-07-14T06:47:47.806Z,1.00
2018-07-14T06:50:16.561Z,1.00
2018-07-14T06:52:45.461Z,1.00
2018-07-14T06:55:14.217Z,1.00
2018-07-14T06:57:42.941Z,1.00
2018-07-14T07:00:11.717Z,1.00
2018-07-14T07:02:40.448Z,1.00
2018-07-14T07:05:09.220Z,1.00
2018-07-14T07:07:37.981Z,1.00
2018-07-14T07:10:06.773Z,1.00
2018-07-14T07:12:35.529Z,1.00
2018-07-14T07:15:04.362Z,1.00
2018-07-14T07:17:33.118Z,1.00
2018-07-14T07:20:01.899Z,1.00
2018-07-14T07:22:30.618Z,1.00
2018-07-14T07:24:59.398Z,1.00
2018-07-14T07:32:27.481Z,1.00
2018-07-14T07:34:56.225Z,1.00
2018-07-14T07:37:25.009Z,1.00
2018-07-14T07:39:53.845Z,1.00
2018-07-14T07:42:22.758Z,1.00
2018-07-14T07:44:51.434Z,1.00
2018-07-14T07:47:20.199Z,1.00
2018-07-14T07:49:48.934Z,1.00
2018-07-14T07:52:17.679Z,1.00
2018-07-14T07:54:46.431Z,1.00
2018-07-14T07:57:15.181Z,1.00
2018-07-14T08:02:12.433Z,1.00
2018-07-14T08:04:41.205Z,1.00
2018-07-14T08:07:10.066Z,1.00
2018-07-14T08:09:39.225Z,1.00
2018-07-14T08:12:08.005Z,1.00
2018-07-14T08:14:36.745Z,1.00
2018-07-14T08:17:05.481Z,1.00
2018-07-14T08:19:34.242Z,1.00
2018-07-14T08:22:03.045Z,1.00
2018-07-14T08:24:31.797Z,1.00
2018-07-14T08:27:00.541Z,1.00
2018-07-14T08:29:29.273Z,1.00
2018-07-14T08:31:58.038Z,1.00
2018-07-14T08:34:26.791Z,1.00
2018-07-14T08:36:55.573Z,1.00
2018-07-14T08:39:24.334Z,1.00
2018-07-14T08:41:53.134Z,1.00
2018-07-14T08:44:21.896Z,1.00
2018-07-14T08:46:50.649Z,1.00
2018-07-14T08:51:47.864Z,1.00
2018-07-14T08:54:16.617Z,1.00
2018-07-14T08:56:45.373Z,1.00
2018-07-14T08:59:14.121Z,1.00
2018-07-14T09:01:42.889Z,1.00
2018-07-14T09:04:11.637Z,1.00
2018-07-14T09:06:40.506Z,1.00
2018-07-14T09:09:09.434Z,1.00
2018-07-14T09:11:38.205Z,1.00
2018-07-14T09:14:06.983Z,1.00
2018-07-14T09:16:35.817Z,1.00
2018-07-14T09:19:04.582Z,1.00
2018-07-14T09:21:33.386Z,1.00
2018-07-14T09:24:02.157Z,1.00
2018-07-14T09:26:30.901Z,1.00
2018-07-14T09:28:59.684Z,1.00
2018-07-14T09:31:28.400Z,1.00
2018-07-14T09:33:57.262Z,1.00
2018-07-14T09:36:26.149Z,1.00
2018-07-14T09:38:54.973Z,1.00
2018-07-14T09:41:23.729Z,1.00
2018-07-14T09:43:52.820Z,1.00
2018-07-14T09:46:21.589Z,1.00
2018-07-14T09:48:50.341Z,1.00
2018-07-14T09:51:19.138Z,1.00
2018-07-14T09:53:48.514Z,1.00
2018-07-14T09:56:17.321Z,1.00
2018-07-14T09:58:46.284Z,1.00
2018-07-14T10:01:14.995Z,1.00
2018-07-14T10:03:43.759Z,1.00
2018-07-14T10:06:12.515Z,1.00
2018-07-14T10:11:09.753Z,1.00
2018-07-14T10:13:38.508Z,1.00
2018-07-14T10:16:07.250Z,1.00
2018-07-14T10:21:04.574Z,1.00
2018-07-14T10:23:33.485Z,1.00
2018-07-14T10:26:02.472Z,1.00
2018-07-14T10:28:31.453Z,1.00
2018-07-14T10:31:00.277Z,1.00
2018-07-14T10:33:29.103Z,1.00
2018-07-14T10:35:57.863Z,1.00
2018-07-14T10:40:55.133Z,1.00
2018-07-14T10:43:23.974Z,1.00
2018-07-14T10:45:52.742Z,1.00
2018-07-14T10:48:21.492Z,1.00
2018-07-14T10:53:18.937Z,1.00
2018-07-14T10:55:47.693Z,1.00
2018-07-14T10:58:16.679Z,1.00
2018-07-14T11:00:45.402Z,1.00
2018-07-14T11:03:14.186Z,1.00
2018-07-14T11:05:42.994Z,1.00
2018-07-14T11:08:11.766Z,1.00
2018-07-14T11:10:40.694Z,1.00
2018-07-14T11:13:09.454Z,1.00
2018-07-14T11:15:38.235Z,1.00
2018-07-14T11:18:06.977Z,1.00
2018-07-14T11:20:35.741Z,1.00
2018-07-14T11:23:04.514Z,1.00
2018-07-14T11:25:33.269Z,1.00
2018-07-14T11:28:02.165Z,1.00
2018-07-14T11:30:31.173Z,1.00
2018-07-14T11:32:59.961Z,1.00
2018-07-14T11:35:29.217Z,1.00
2018-07-14T11:37:58.006Z,1.00
2018-07-14T11:40:26.825Z,1.00
2018-07-14T11:42:55.597Z,1.00
2018-07-14T11:45:24.346Z,1.00
2018-07-14T11:47:53.212Z,1.00
2018-07-14T11:50:21.943Z,1.00
2018-07-14T11:52:50.749Z,1.00
2018-07-14T11:55:19.521Z,1.00
2018-07-14T11:57:48.269Z,1.00
2018-07-14T12:00:17.044Z,1.00
2018-07-14T12:02:45.802Z,1.00
2018-07-14T12:05:14.595Z,1.00
2018-07-14T12:07:43.342Z,1.00
2018-07-14T12:10:12.102Z,1.00
2018-07-14T12:12:41.077Z,1.00
2018-07-14T12:15:09.854Z,1.00
2018-07-14T12:17:38.665Z,1.00
2018-07-14T12:20:07.440Z,1.00
2018-07-14T12:22:36.165Z,1.00
2018-07-14T12:25:05.161Z,1.00
2018-07-14T12:27:33.901Z,1.00
2018-07-14T12:30:04.780Z,1.00
2018-07-14T12:32:33.548Z,1.00
2018-07-14T12:35:02.457Z,1.00
2018-07-14T12:37:31.317Z,1.00
2018-07-14T12:40:00.227Z,1.00
2018-07-14T12:42:29.165Z,1.00
2018-07-14T12:44:57.955Z,1.00
2018-07-14T12:47:26.718Z,1.00
2018-07-14T12:49:55.980Z,1.00
2018-07-14T12:52:25.061Z,1.00
2018-07-14T12:54:54.034Z,1.00
2018-07-14T12:57:23.107Z,1.00
2018-07-14T12:59:52.161Z,1.00
2018-07-14T13:02:20.973Z,1.00
2018-07-14T13:04:49.778Z,1.00
2018-07-14T13:07:18.561Z,1.00
2018-07-14T13:09:47.393Z,1.00
2018-07-14T13:12:16.207Z,1.00
2018-07-14T13:14:44.986Z,1.00
2018-07-14T13:17:13.771Z,1.00
2018-07-14T13:19:42.524Z,1.00
2018-07-14T13:22:11.285Z,1.00
2018-07-14T13:24:40.061Z,1.00
2018-07-14T13:27:09.494Z,1.00
2018-07-14T13:29:39.209Z,1.00
2018-07-14T13:32:07.949Z,1.00
2018-07-14T13:34:36.957Z,1.00
2018-07-14T13:37:05.940Z,1.00
2018-07-14T13:39:34.702Z,1.00
2018-07-14T13:42:03.538Z,1.00
2018-07-14T13:44:32.285Z,1.00
2018-07-14T13:47:01.091Z,1.00
2018-07-14T13:49:29.845Z,1.00
2018-07-14T13:51:58.646Z,1.00
2018-07-14T13:56:55.857Z,1.00
2018-07-14T13:59:24.668Z,1.00
2018-07-14T14:04:22.201Z,1.00
2018-07-14T14:06:50.954Z,1.00
2018-07-14T14:09:19.710Z,1.00
2018-07-14T14:11:48.547Z,1.00
2018-07-14T14:14:17.269Z,1.00
2018-07-14T14:16:46.077Z,1.00
2018-07-14T14:19:14.822Z,1.00
2018-07-14T14:21:43.890Z,1.00
2018-07-14T14:24:12.654Z,1.00
2018-07-14T14:26:41.430Z,1.00
2018-07-14T14:29:10.378Z,1.00
2018-07-14T14:31:39.125Z,1.00
2018-07-14T14:34:07.971Z,1.00
2018-07-14T14:36:36.686Z,1.00
2018-07-14T14:39:06.690Z,1.00
2018-07-14T14:41:35.450Z,1.00
2018-07-14T14:44:04.309Z,1.00
2018-07-14T14:49:01.714Z,1.00
2018-07-14T14:51:30.489Z,1.00
2018-07-14T14:53:59.264Z,1.00
2018-07-14T14:56:28.014Z,1.00
2018-07-14T14:58:56.789Z,1.00
2018-07-14T15:01:25.564Z,1.00
2018-07-14T15:03:54.297Z,1.00
2018-07-14T15:06:23.061Z,1.00
2018-07-14T15:08:51.817Z,1.00
2018-07-14T15:11:20.581Z,1.00
2018-07-14T15:13:49.317Z,1.00
2018-07-14T15:16:18.085Z,1.00
2018-07-14T15:18:46.821Z,1.00
2018-07-14T15:21:15.594Z,1.00
2018-07-14T15:23:44.409Z,1.00
2018-07-14T15:26:13.173Z,1.00
2018-07-14T15:28:41.901Z,1.00
2018-07-14T15:31:10.641Z,1.00
2018-07-14T15:33:39.373Z,1.00
2018-07-14T15:36:08.209Z,1.00
2018-07-14T15:38:36.971Z,1.00
2018-07-14T15:41:06.137Z,1.00
2018-07-14T15:48:31.949Z,1.00
2018-07-14T15:51:00.737Z,1.00
2018-07-14T15:53:29.629Z,1.00
2018-07-14T15:55:58.374Z,1.00
2018-07-14T15:58:27.139Z,1.00
2018-07-14T16:03:24.390Z,1.00
2018-07-14T16:05:53.153Z,1.00
2018-07-14T16:08:22.025Z,1.00
2018-07-14T16:10:51.181Z,1.00
2018-07-14T16:18:17.090Z,1.00
2018-07-14T16:20:46.034Z,1.00
2018-07-14T16:23:14.821Z,1.00
2018-07-14T16:28:12.102Z,1.00
2018-07-14T16:30:40.869Z,1.00
2018-07-14T16:33:09.622Z,1.00
2018-07-14T16:35:38.448Z,1.00
2018-07-14T16:38:07.137Z,1.00
2018-07-14T16:40:35.881Z,1.00
2018-07-14T16:43:04.944Z,1.00
2018-07-14T16:45:33.686Z,1.00
2018-07-14T16:48:02.442Z,1.00
2018-07-14T16:50:31.174Z,1.00
2018-07-14T16:52:59.949Z,1.00
2018-07-14T16:55:28.778Z,1.00
2018-07-14T16:57:57.563Z,1.00
2018-07-14T17:00:26.385Z,1.00
2018-07-14T17:02:55.129Z,1.00
2018-07-14T17:05:23.889Z,1.00
2018-07-14T17:07:52.909Z,1.00
2018-07-14T17:10:21.649Z,1.00
2018-07-14T17:12:50.414Z,1.00
2018-07-14T17:15:19.225Z,1.00
2018-07-14T17:17:48.033Z,1.00
2018-07-14T17:20:16.805Z,1.00
2018-07-14T17:22:45.566Z,1.00
2018-07-14T17:25:14.301Z,1.00
2018-07-14T17:27:43.061Z,1.00
2018-07-14T17:30:11.801Z,1.00
2018-07-14T17:32:40.565Z,1.00
2018-07-14T17:35:09.365Z,1.00
2018-07-14T17:37:38.287Z,1.00
2018-07-14T17:42:35.553Z,1.00
2018-07-14T17:47:33.077Z,1.00
2018-07-14T17:50:02.009Z,1.00
2018-07-14T17:52:30.795Z,1.00
2018-07-14T17:54:59.537Z,1.00
2018-07-14T17:57:28.285Z,1.00
2018-07-14T18:02:25.565Z,1.00
2018-07-14T18:04:54.322Z,1.00
2018-07-14T18:07:23.074Z,1.00
2018-07-14T18:09:51.821Z,1.00
2018-07-14T18:14:49.039Z,1.00
2018-07-14T18:17:17.769Z,1.00
2018-07-14T18:22:15.180Z,1.00
2018-07-14T18:27:12.381Z,1.00
2018-07-14T18:29:41.327Z,1.00
2018-07-14T18:32:10.377Z,1.00
2018-07-14T18:34:40.261Z,1.00
2018-07-14T18:37:08.990Z,1.00
2018-07-14T18:39:37.794Z,1.00
2018-07-14T18:44:35.082Z,1.00
2018-07-14T18:47:03.916Z,1.00
2018-07-14T18:49:32.678Z,1.00
2018-07-14T18:52:01.431Z,1.00
2018-07-14T18:56:58.873Z,1.00
2018-07-14T18:59:27.666Z,1.00
2018-07-14T19:01:56.661Z,1.00
2018-07-14T19:04:25.437Z,1.00
2018-07-14T19:06:54.253Z,1.00
2018-07-14T19:09:23.018Z,1.00
2018-07-14T19:11:51.794Z,1.00
2018-07-14T19:14:20.664Z,1.00
2018-07-14T19:16:49.387Z,1.00
2018-07-14T19:19:18.214Z,1.00
2018-07-14T19:24:15.580Z,1.00
2018-07-14T19:29:12.854Z,1.00
2018-07-14T19:31:41.661Z,1.00
2018-07-14T19:34:10.406Z,1.00
2018-07-14T19:36:39.196Z,1.00
2018-07-14T19:39:08.313Z,1.00
2018-07-14T19:44:05.563Z,1.00
2018-07-14T19:46:34.310Z,1.00
2018-07-14T19:49:03.155Z,1.00
2018-07-14T19:51:31.893Z,1.00
2018-07-14T19:54:00.664Z,1.00
2018-07-14T19:56:29.447Z,1.00
2018-07-14T20:01:26.729Z,1.00
2018-07-14T20:03:55.485Z,1.00
2018-07-14T20:08:53.016Z,1.00
2018-07-14T20:11:21.786Z,1.00
2018-07-14T20:16:20.629Z,1.00
2018-07-14T20:18:49.381Z,1.00
2018-07-14T20:21:18.137Z,1.00
2018-07-14T20:28:43.857Z,1.00
2018-07-14T20:31:12.653Z,1.00
2018-07-14T20:33:41.435Z,1.00
2018-07-14T20:36:10.221Z,1.00
2018-07-14T20:38:38.989Z,1.00
2018-07-14T20:41:07.743Z,1.00
2018-07-14T20:43:36.498Z,1.00
2018-07-14T20:46:05.428Z,1.00
2018-07-14T20:48:34.196Z,1.00
2018-07-14T20:51:03.017Z,1.00
2018-07-14T20:53:31.773Z,1.00
2018-07-14T20:56:00.545Z,1.00
2018-07-14T21:00:57.917Z,1.00
2018-07-14T21:08:24.370Z,1.00
2018-07-14T21:10:53.133Z,1.00
2018-07-14T21:13:21.880Z,1.00
2018-07-14T21:15:50.658Z,1.00
2018-07-14T21:20:48.047Z,1.00
2018-07-14T21:23:16.754Z,1.00
2018-07-14T21:25:45.613Z,1.00
2018-07-14T21:30:42.957Z,1.00
2018-07-14T21:33:11.726Z,1.00
2018-07-14T21:35:40.520Z,1.00
2018-07-14T21:38:09.278Z,1.00
2018-07-14T21:40:38.132Z,1.00
2018-07-14T21:43:06.965Z,1.00
2018-07-14T21:45:35.765Z,1.00
2018-07-14T21:48:04.778Z,1.00
2018-07-14T21:50:33.546Z,1.00
2018-07-14T21:53:02.286Z,1.00
2018-07-14T21:57:59.728Z,1.00
2018-07-14T22:00:34.249Z,1.00
2018-07-14T22:03:05.017Z,1.00
2018-07-14T22:05:33.833Z,1.00
2018-07-14T22:08:02.690Z,1.00
2018-07-14T22:10:31.466Z,1.00
2018-07-14T22:13:00.250Z,1.00
2018-07-14T22:15:29.030Z,1.00
2018-07-14T22:17:57.957Z,1.00
2018-07-14T22:20:26.933Z,1.00
2018-07-14T22:22:55.694Z,1.00
2018-07-14T22:25:24.493Z,1.00
2018-07-14T22:27:53.253Z,1.00
2018-07-14T22:30:21.997Z,1.00
2018-07-14T22:32:50.741Z,1.00
2018-07-14T22:35:19.534Z,1.00
2018-07-14T22:37:48.320Z,1.00
2018-07-14T22:40:17.069Z,1.00
2018-07-14T22:42:45.971Z,1.00
2018-07-14T22:45:14.725Z,1.00
2018-07-14T22:52:40.482Z,1.00
2018-07-14T22:55:09.257Z,1.00
2018-07-14T22:57:38.009Z,1.00
2018-07-14T23:00:07.381Z,1.00
2018-07-14T23:02:36.137Z,1.00
2018-07-14T23:05:05.078Z,1.00
2018-07-14T23:07:33.841Z,1.00
2018-07-14T23:10:02.658Z,1.00
2018-07-14T23:12:31.405Z,1.00
2018-07-14T23:17:28.786Z,1.00
2018-07-14T23:19:57.683Z,1.00
2018-07-14T23:24:54.947Z,1.10
2018-07-14T23:29:52.681Z,1.90
2018-07-14T23:32:21.477Z,1.00
2018-07-14T23:34:50.220Z,2.30
2018-07-14T23:37:19.358Z,3.60
2018-07-14T23:39:48.118Z,3.30
2018-07-14T23:44:45.529Z,3.20
2018-07-14T23:47:14.306Z,2.90
2018-07-14T23:49:43.229Z,2.30
2018-07-14T23:54:40.490Z,4.20
2018-07-14T23:57:09.259Z,3.70
2018-07-14T23:59:38.052Z,4.20
